Terminal Aerodrome Forecast
Issued by NWS Pueblo, CO

Home | Current Version | Previous Version | Text Only | Print | Product List | Glossary On
Versions: 1 2 3 4 5 6 7 8 9 10 11 12 13 14 15 16 17 18 19 20 21 22 23 24 25 26 27 28 29 30 31 32 33 34 35 36 37 38 39 40 41 42 43 44 45
000
FTUS45 KPUB 040520
TAFPUB
TAF
KPUB 040520Z 0406/0506 35009KT P6SM VCSH SCT050 BKN100
     FM040700 33008KT P6SM VCSH SCT012 BKN030
      TEMPO 0408/0412 3SM -SHRA BR SCT010 BKN020
     FM041400 12006KT P6SM BKN120
     FM041800 15010KT P6SM VCTS SCT060 BKN100CB
     FM042200 12012KT 5SM -TSRA SCT030 BKN060CB=

USA.gov is the U.S. government's official web portal to all federal, state and local government web resources and services.